Time;durP1;ratioP1;P1;durP2;ratioP2;P2;SDS_P1;SDS_P2;PMS_P1;PMS_P2;Temp;Humidity;BMP_temperature;BMP_pressure;BME280_temperature;BME280_humidity;BME280_pressure;Samples;Min_cycle;Max_cycle;Signal;HPM_P1;HPM_P2
2023/08/09 00:01:03;;;;;;;11.43;5.68;;;;;;;;;;5034317;28;20047;-75
2023/08/09 00:03:29;;;;;;;10.43;5.85;;;;;;;;;;5035512;28;20404;-75
2023/08/09 00:05:55;;;;;;;11.05;5.68;;;;;;;;;;5033614;28;20407;-76
2023/08/09 00:08:21;;;;;;;13.40;5.90;;;;;;;;;;5034521;28;20055;-76
2023/08/09 00:10:47;;;;;;;14.85;5.60;;;;;;;;;;5035166;28;20037;-76
2023/08/09 00:13:13;;;;;;;11.50;6.00;;;;;;;;;;5034681;28;20504;-77
2023/08/09 00:15:39;;;;;;;12.75;5.93;;;;;;;;;;5034283;28;20045;-75
2023/08/09 00:18:05;;;;;;;11.10;6.40;;;;;;;;;;5035398;28;20041;-76
2023/08/09 00:20:32;;;;;;;12.20;6.57;;;;;;;;;;5033457;28;20047;-76
2023/08/09 00:22:58;;;;;;;11.15;6.90;;;;;;;;;;5035400;28;20106;-75
2023/08/09 00:25:24;;;;;;;13.25;6.97;;;;;;;;;;5033703;28;20046;-76
2023/08/09 00:27:50;;;;;;;14.35;7.82;;;;;;;;;;5033493;28;20041;-75
2023/08/09 00:30:17;;;;;;;14.38;8.15;;;;;;;;;;5035105;28;20041;-75
2023/08/09 00:32:43;;;;;;;12.70;7.95;;;;;;;;;;5034627;28;20392;-76
2023/08/09 00:35:09;;;;;;;14.07;7.65;;;;;;;;;;5033227;28;20046;-76
2023/08/09 00:37:35;;;;;;;14.50;8.00;;;;;;;;;;5032052;28;20037;-76
2023/08/09 00:40:07;;;;;;;15.23;9.05;;;;;;;;;;5029384;28;20120;-75
2023/08/09 00:42:33;;;;;;;13.23;8.82;;;;;;;;;;5033761;28;20089;-75
2023/08/09 00:44:59;;;;;;;17.42;9.55;;;;;;;;;;5033602;28;20056;-75
2023/08/09 00:47:26;;;;;;;17.48;8.80;;;;;;;;;;5033390;28;20667;-74
2023/08/09 00:49:52;;;;;;;14.48;9.15;;;;;;;;;;5030156;28;20057;-76
2023/08/09 00:52:20;;;;;;;16.20;9.25;;;;;;;;;;5014949;28;20046;-75
2023/08/09 00:54:48;;;;;;;19.23;10.30;;;;;;;;;;5014974;28;20420;-75
2023/08/09 00:57:14;;;;;;;15.20;9.10;;;;;;;;;;5020751;28;20399;-75
2023/08/09 00:59:41;;;;;;;14.10;9.05;;;;;;;;;;5034562;28;20488;-75
2023/08/09 01:02:08;;;;;;;14.55;8.52;;;;;;;;;;5033670;28;20056;-76
2023/08/09 01:04:34;;;;;;;18.05;9.25;;;;;;;;;;5030403;28;20115;-76
2023/08/09 01:07:07;;;;;;;16.88;8.77;;;;;;;;;;5032344;28;20479;-75
2023/08/09 01:09:42;;;;;;;14.25;8.60;;;;;;;;;;5033041;28;20156;-75
2023/08/09 01:12:11;;;;;;;16.33;9.50;;;;;;;;;;5034270;28;20062;-75
2023/08/09 01:14:41;;;;;;;16.00;9.52;;;;;;;;;;5019494;28;20120;-75
2023/08/09 01:17:09;;;;;;;13.15;9.27;;;;;;;;;;5029028;28;20124;-75
2023/08/09 01:19:35;;;;;;;17.20;10.45;;;;;;;;;;5034219;28;20138;-75
2023/08/09 01:22:13;;;;;;;15.88;10.75;;;;;;;;;;5034347;28;20068;-76
2023/08/09 01:24:40;;;;;;;14.38;9.63;;;;;;;;;;5033980;28;20539;-75
2023/08/09 01:27:06;;;;;;;15.90;10.18;;;;;;;;;;5032939;28;20033;-76
2023/08/09 01:29:32;;;;;;;19.45;11.35;;;;;;;;;;5033219;28;20128;-75
2023/08/09 01:31:58;;;;;;;17.98;11.52;;;;;;;;;;5033223;28;20045;-76
2023/08/09 01:34:24;;;;;;;15.35;10.50;;;;;;;;;;5033982;28;20053;-75
2023/08/09 01:36:51;;;;;;;15.77;10.52;;;;;;;;;;5031233;28;20045;-76
2023/08/09 01:39:26;;;;;;;17.90;11.00;;;;;;;;;;5033627;28;20456;-76
2023/08/09 01:41:52;;;;;;;17.73;10.75;;;;;;;;;;5032236;28;20038;-76
2023/08/09 01:44:18;;;;;;;16.88;11.23;;;;;;;;;;5032385;28;20120;-76
2023/08/09 01:46:44;;;;;;;15.13;11.63;;;;;;;;;;5032412;28;20084;-76
2023/08/09 01:49:15;;;;;;;19.90;11.90;;;;;;;;;;5032770;28;20123;-75
2023/08/09 01:51:41;;;;;;;19.73;12.63;;;;;;;;;;5033441;28;20376;-76
2023/08/09 01:54:08;;;;;;;20.17;13.30;;;;;;;;;;5033426;28;20056;-75
2023/08/09 01:56:36;;;;;;;15.65;11.15;;;;;;;;;;5032963;28;20053;-76
2023/08/09 01:59:04;;;;;;;16.10;10.70;;;;;;;;;;5030434;28;20053;-76
2023/08/09 02:01:31;;;;;;;15.38;10.95;;;;;;;;;;5032645;28;20468;-76
2023/08/09 02:03:57;;;;;;;17.17;12.10;;;;;;;;;;5033446;28;20074;-75
2023/08/09 02:06:23;;;;;;;22.85;11.90;;;;;;;;;;5032437;28;20048;-75
2023/08/09 02:08:49;;;;;;;17.65;11.48;;;;;;;;;;5030761;28;20049;-75
2023/08/09 02:11:15;;;;;;;18.20;12.32;;;;;;;;;;5031664;28;20046;-75
2023/08/09 02:13:41;;;;;;;20.77;13.00;;;;;;;;;;5032239;28;20056;-75
2023/08/09 02:16:07;;;;;;;18.95;12.57;;;;;;;;;;5019933;28;20403;-76
2023/08/09 02:18:33;;;;;;;18.08;12.52;;;;;;;;;;5027813;28;20156;-75
2023/08/09 02:21:02;;;;;;;17.70;11.38;;;;;;;;;;5032774;28;20069;-76
2023/08/09 02:23:28;;;;;;;16.45;11.95;;;;;;;;;;5032456;28;20387;-76
2023/08/09 02:25:54;;;;;;;16.92;11.32;;;;;;;;;;5031337;28;20053;-76
2023/08/09 02:28:21;;;;;;;16.10;11.90;;;;;;;;;;5031132;28;20049;-76
2023/08/09 02:30:47;;;;;;;18.77;12.68;;;;;;;;;;5031025;28;20046;-76
2023/08/09 02:33:13;;;;;;;17.42;12.85;;;;;;;;;;5033181;28;20049;-76
2023/08/09 02:35:52;;;;;;;16.15;11.00;;;;;;;;;;5032733;28;20420;-76
2023/08/09 02:38:18;;;;;;;18.75;12.65;;;;;;;;;;5025406;28;20069;-76
2023/08/09 02:40:44;;;;;;;17.33;11.65;;;;;;;;;;5032955;28;20505;-77
2023/08/09 02:43:10;;;;;;;19.17;12.45;;;;;;;;;;5021264;28;20042;-76
2023/08/09 02:45:37;;;;;;;19.60;12.27;;;;;;;;;;5013277;28;20049;-76
2023/08/09 02:48:03;;;;;;;17.75;12.07;;;;;;;;;;5001013;28;20049;-77
2023/08/09 02:50:30;;;;;;;18.35;13.27;;;;;;;;;;5032835;28;20116;-76
2023/08/09 02:52:56;;;;;;;22.60;14.07;;;;;;;;;;5032769;28;20052;-76
2023/08/09 02:55:22;;;;;;;19.38;13.70;;;;;;;;;;5032489;28;20388;-77
2023/08/09 02:57:48;;;;;;;19.10;13.65;;;;;;;;;;5031018;28;20049;-76
2023/08/09 03:00:16;;;;;;;19.05;12.85;;;;;;;;;;5032851;28;20096;-76
2023/08/09 03:02:42;;;;;;;17.63;12.98;;;;;;;;;;5032345;28;20120;-76
2023/08/09 03:05:08;;;;;;;22.85;13.30;;;;;;;;;;5032611;28;20049;-77
2023/08/09 03:07:36;;;;;;;18.40;12.68;;;;;;;;;;5031211;28;20042;-77
2023/08/09 03:10:03;;;;;;;17.15;12.93;;;;;;;;;;5027394;28;20132;-76
2023/08/09 03:12:29;;;;;;;19.33;12.77;;;;;;;;;;5030489;28;20085;-76
2023/08/09 03:14:55;;;;;;;18.15;12.55;;;;;;;;;;5032940;28;20049;-76
2023/08/09 03:17:21;;;;;;;20.15;14.88;;;;;;;;;;5032118;28;20037;-76
2023/08/09 03:19:49;;;;;;;18.60;12.23;;;;;;;;;;5032255;28;20045;-76
2023/08/09 03:22:15;;;;;;;18.85;12.38;;;;;;;;;;5032728;28;20120;-76
2023/08/09 03:24:41;;;;;;;16.60;12.95;;;;;;;;;;5032492;28;20515;-76
2023/08/09 03:27:08;;;;;;;16.70;12.40;;;;;;;;;;5029253;28;20042;-78
2023/08/09 03:29:34;;;;;;;17.67;13.45;;;;;;;;;;5028947;28;20373;-77
2023/08/09 03:32:00;;;;;;;18.73;12.13;;;;;;;;;;5033235;28;20179;-76
2023/08/09 03:34:26;;;;;;;18.33;12.88;;;;;;;;;;5035787;28;20515;-76
2023/08/09 03:36:52;;;;;;;17.58;13.65;;;;;;;;;;5035116;28;20057;-76
2023/08/09 03:39:19;;;;;;;21.02;15.07;;;;;;;;;;5034186;28;20061;-76
2023/08/09 03:41:45;;;;;;;20.33;14.65;;;;;;;;;;5034877;28;20071;-77
2023/08/09 03:44:11;;;;;;;23.63;15.98;;;;;;;;;;5035976;28;20530;-74
2023/08/09 03:46:37;;;;;;;21.38;14.98;;;;;;;;;;5035886;28;20488;-76
2023/08/09 03:49:03;;;;;;;19.85;13.32;;;;;;;;;;5023267;28;20052;-74
2023/08/09 03:51:30;;;;;;;21.73;15.10;;;;;;;;;;5031743;28;20046;-77
2023/08/09 03:53:56;;;;;;;21.48;15.30;;;;;;;;;;5033736;28;20522;-76
2023/08/09 03:56:22;;;;;;;20.05;15.20;;;;;;;;;;5034093;28;20055;-76
2023/08/09 03:58:48;;;;;;;22.40;16.17;;;;;;;;;;5033128;28;20408;-76
2023/08/09 04:01:15;;;;;;;20.40;14.35;;;;;;;;;;5033414;28;20064;-76
2023/08/09 04:03:41;;;;;;;19.20;15.05;;;;;;;;;;5032705;28;20115;-77
2023/08/09 04:06:07;;;;;;;18.58;14.73;;;;;;;;;;5034012;28;20462;-76
2023/08/09 04:08:33;;;;;;;23.67;16.25;;;;;;;;;;5033632;28;20061;-77
2023/08/09 04:11:04;;;;;;;21.55;15.85;;;;;;;;;;5030725;28;20063;-77
2023/08/09 04:13:30;;;;;;;19.67;15.93;;;;;;;;;;5014564;28;20049;-76
2023/08/09 04:15:56;;;;;;;20.85;16.42;;;;;;;;;;5021760;28;20049;-77
2023/08/09 04:18:22;;;;;;;20.63;16.33;;;;;;;;;;5033235;28;20042;-77
2023/08/09 04:20:49;;;;;;;21.48;16.20;;;;;;;;;;5033230;28;20052;-76
2023/08/09 04:23:16;;;;;;;24.85;17.92;;;;;;;;;;5033870;28;20255;-76
2023/08/09 04:25:42;;;;;;;22.83;16.60;;;;;;;;;;5031847;28;20416;-76
2023/08/09 04:28:08;;;;;;;21.70;16.00;;;;;;;;;;5022562;28;20046;-76
2023/08/09 04:30:35;;;;;;;23.13;16.80;;;;;;;;;;5033519;28;20045;-77
2023/08/09 04:33:03;;;;;;;20.75;15.43;;;;;;;;;;5032697;28;20049;-76
2023/08/09 04:35:29;;;;;;;21.30;16.20;;;;;;;;;;5033690;28;20053;-77
2023/08/09 04:37:55;;;;;;;20.52;15.88;;;;;;;;;;5034500;28;20076;-77
2023/08/09 04:40:24;;;;;;;18.73;15.27;;;;;;;;;;5019482;28;20042;-77
2023/08/09 04:42:51;;;;;;;20.73;15.63;;;;;;;;;;5033743;28;20049;-77
2023/08/09 04:45:17;;;;;;;21.98;14.77;;;;;;;;;;5033644;28;20061;-76
2023/08/09 04:47:43;;;;;;;18.33;15.95;;;;;;;;;;5032305;28;20046;-76
2023/08/09 04:50:10;;;;;;;18.25;14.65;;;;;;;;;;5034063;28;20037;-76
2023/08/09 04:52:38;;;;;;;18.15;13.15;;;;;;;;;;5018781;28;20117;-76
2023/08/09 04:55:05;;;;;;;18.83;13.77;;;;;;;;;;5027696;28;20099;-77
2023/08/09 04:57:31;;;;;;;17.20;12.93;;;;;;;;;;5033658;28;20084;-77
2023/08/09 04:59:57;;;;;;;17.75;13.25;;;;;;;;;;5033932;28;20065;-76
2023/08/09 05:02:24;;;;;;;16.75;13.70;;;;;;;;;;5031986;28;20059;-76
2023/08/09 05:04:50;;;;;;;17.00;13.27;;;;;;;;;;5032871;28;20053;-76
2023/08/09 05:07:16;;;;;;;16.73;12.93;;;;;;;;;;5033498;28;20041;-76
2023/08/09 05:09:42;;;;;;;18.15;14.68;;;;;;;;;;5033404;28;20064;-76
2023/08/09 05:12:08;;;;;;;14.25;11.95;;;;;;;;;;5031878;28;20049;-77
2023/08/09 05:14:34;;;;;;;15.90;14.10;;;;;;;;;;5033971;28;20459;-77
2023/08/09 05:17:01;;;;;;;14.30;12.80;;;;;;;;;;5032712;28;20049;-77
2023/08/09 05:19:27;;;;;;;15.55;12.27;;;;;;;;;;5031690;28;20076;-76
2023/08/09 05:21:53;;;;;;;14.10;12.35;;;;;;;;;;5030647;28;20100;-76
2023/08/09 05:24:19;;;;;;;12.95;9.65;;;;;;;;;;5033523;28;20045;-76
2023/08/09 05:26:46;;;;;;;14.80;11.35;;;;;;;;;;5033878;28;20156;-77
2023/08/09 05:29:12;;;;;;;10.65;9.23;;;;;;;;;;5030977;28;20119;-77
2023/08/09 05:31:38;;;;;;;12.77;10.23;;;;;;;;;;5019048;28;20096;-76
2023/08/09 05:34:04;;;;;;;12.48;9.27;;;;;;;;;;5013793;28;20038;-77
2023/08/09 05:36:31;;;;;;;8.48;7.30;;;;;;;;;;5026400;28;20054;-76
2023/08/09 05:38:57;;;;;;;11.05;7.63;;;;;;;;;;5033080;28;20038;-77
2023/08/09 05:41:23;;;;;;;10.45;7.00;;;;;;;;;;5032351;28;20045;-76
2023/08/09 05:43:49;;;;;;;9.18;6.45;;;;;;;;;;5033097;28;20176;-76
2023/08/09 05:46:15;;;;;;;7.53;5.25;;;;;;;;;;5033271;28;20085;-76
2023/08/09 05:48:41;;;;;;;7.65;5.22;;;;;;;;;;5032439;28;20041;-76
2023/08/09 05:51:07;;;;;;;9.68;4.57;;;;;;;;;;5031972;28;20053;-76
2023/08/09 05:53:33;;;;;;;7.13;4.00;;;;;;;;;;5032845;28;20186;-76
2023/08/09 05:55:59;;;;;;;6.07;3.90;;;;;;;;;;5030614;28;20103;-77
2023/08/09 05:58:25;;;;;;;7.70;3.97;;;;;;;;;;4712878;23;20045;-87
2023/08/09 06:00:52;;;;;;;6.35;3.50;;;;;;;;;;5053328;28;20071;-87
2023/08/09 06:03:18;;;;;;;5.50;3.60;;;;;;;;;;5060489;28;20063;-87
2023/08/09 06:05:44;;;;;;;6.13;3.83;;;;;;;;;;5061959;28;20059;-88
2023/08/09 06:08:13;;;;;;;6.35;3.63;;;;;;;;;;5061249;28;20215;-88
2023/08/09 06:10:39;;;;;;;8.30;3.25;;;;;;;;;;5050588;28;20049;-88
2023/08/09 06:13:05;;;;;;;6.13;3.05;;;;;;;;;;5049745;28;20048;-88
2023/08/09 06:15:31;;;;;;;5.18;3.08;;;;;;;;;;5053330;28;20041;-87
2023/08/09 06:18:00;;;;;;;7.45;3.33;;;;;;;;;;5060931;28;20088;-87
2023/08/09 06:20:27;;;;;;;5.95;3.50;;;;;;;;;;5047339;28;20036;-87
2023/08/09 06:22:53;;;;;;;5.28;2.67;;;;;;;;;;5043722;28;20057;-85
2023/08/09 06:25:20;;;;;;;5.40;2.50;;;;;;;;;;5049501;28;20131;-85
2023/08/09 06:27:46;;;;;;;6.03;2.80;;;;;;;;;;5059395;28;22731;-86
2023/08/09 06:30:12;;;;;;;6.45;2.67;;;;;;;;;;5049243;28;20097;-86
2023/08/09 06:32:38;;;;;;;7.35;2.40;;;;;;;;;;5057215;28;20043;-86
2023/08/09 06:35:04;;;;;;;5.10;2.60;;;;;;;;;;5059655;28;20045;-83
2023/08/09 06:37:31;;;;;;;4.65;2.35;;;;;;;;;;5063351;28;20080;-84
2023/08/09 06:39:57;;;;;;;8.45;2.50;;;;;;;;;;5062672;28;20052;-85
2023/08/09 06:42:24;;;;;;;4.47;2.42;;;;;;;;;;5061797;28;20080;-86
2023/08/09 06:44:50;;;;;;;5.55;2.60;;;;;;;;;;5055753;28;20179;-86
2023/08/09 06:47:16;;;;;;;4.50;2.28;;;;;;;;;;5033592;28;20041;-86
2023/08/09 06:49:42;;;;;;;6.35;2.25;;;;;;;;;;5059195;28;20189;-86
2023/08/09 06:52:08;;;;;;;8.02;2.22;;;;;;;;;;5063938;28;20073;-85
2023/08/09 06:54:34;;;;;;;5.50;1.98;;;;;;;;;;5064494;28;20033;-84
2023/08/09 06:57:00;;;;;;;4.18;1.95;;;;;;;;;;5059365;28;20069;-85
2023/08/09 06:59:26;;;;;;;4.45;1.73;;;;;;;;;;5037134;28;20068;-84
2023/08/09 07:01:52;;;;;;;4.45;1.85;;;;;;;;;;5041388;28;20096;-85
2023/08/09 07:04:19;;;;;;;6.47;1.70;;;;;;;;;;5042873;28;20071;-86
2023/08/09 07:06:45;;;;;;;5.50;2.00;;;;;;;;;;5042262;28;20084;-86
2023/08/09 07:09:12;;;;;;;4.35;1.70;;;;;;;;;;5045544;28;20396;-86
2023/08/09 07:11:39;;;;;;;4.97;1.80;;;;;;;;;;5045592;28;20060;-86
2023/08/09 07:14:05;;;;;;;5.53;1.80;;;;;;;;;;5045983;28;20042;-85
2023/08/09 07:16:31;;;;;;;3.40;1.42;;;;;;;;;;5030981;28;20483;-85
2023/08/09 07:19:01;;;;;;;4.68;1.40;;;;;;;;;;5027947;28;20049;-86
2023/08/09 07:21:27;;;;;;;3.33;1.15;;;;;;;;;;5038178;28;20069;-86
2023/08/09 07:23:54;;;;;;;5.32;1.50;;;;;;;;;;5040606;28;20042;-85
2023/08/09 07:26:20;;;;;;;5.00;1.38;;;;;;;;;;5043908;28;20060;-84
2023/08/09 07:28:46;;;;;;;4.75;1.20;;;;;;;;;;5042685;28;20045;-84
2023/08/09 07:31:22;;;;;;;3.92;1.20;;;;;;;;;;5041311;28;20041;-85
2023/08/09 07:33:49;;;;;;;4.00;1.30;;;;;;;;;;5025661;28;20081;-85
2023/08/09 07:36:15;;;;;;;3.25;1.10;;;;;;;;;;5024155;28;20140;-85
2023/08/09 07:38:41;;;;;;;5.97;1.00;;;;;;;;;;5041324;28;20052;-86
2023/08/09 07:41:07;;;;;;;4.18;0.90;;;;;;;;;;5043017;28;20045;-86
2023/08/09 07:43:34;;;;;;;5.53;1.20;;;;;;;;;;5042369;28;20151;-85
2023/08/09 07:46:03;;;;;;;5.75;1.10;;;;;;;;;;5045697;28;20083;-85
2023/08/09 07:48:29;;;;;;;4.40;1.05;;;;;;;;;;5034083;28;20108;-86
2023/08/09 07:50:56;;;;;;;5.07;1.00;;;;;;;;;;5041294;28;20052;-85
2023/08/09 07:53:22;;;;;;;4.53;1.00;;;;;;;;;;5025938;28;20163;-84
2023/08/09 07:55:48;;;;;;;4.88;1.00;;;;;;;;;;5026992;28;20038;-85
2023/08/09 07:58:14;;;;;;;3.33;0.80;;;;;;;;;;5043197;28;20064;-85
2023/08/09 08:00:41;;;;;;;4.20;0.90;;;;;;;;;;5046180;28;20122;-85
2023/08/09 08:03:07;;;;;;;4.53;0.80;;;;;;;;;;5045557;28;20048;-85
2023/08/09 08:05:34;;;;;;;4.20;0.90;;;;;;;;;;5044008;28;20116;-85
2023/08/09 08:08:00;;;;;;;3.60;0.90;;;;;;;;;;5045047;28;20069;-86
2023/08/09 08:10:27;;;;;;;4.07;1.20;;;;;;;;;;5045487;28;20064;-86
2023/08/09 08:12:54;;;;;;;2.60;0.63;;;;;;;;;;5045888;28;20467;-86
2023/08/09 08:15:20;;;;;;;3.20;0.90;;;;;;;;;;5038162;28;20041;-86
2023/08/09 08:17:48;;;;;;;2.80;0.90;;;;;;;;;;5047642;28;20097;-86
2023/08/09 08:20:19;;;;;;;4.40;0.90;;;;;;;;;;5045578;28;20056;-84
2023/08/09 08:22:46;;;;;;;5.93;0.90;;;;;;;;;;5044589;28;20098;-85
2023/08/09 08:25:16;;;;;;;3.97;1.10;;;;;;;;;;5023218;28;20108;-86
2023/08/09 08:27:45;;;;;;;3.83;1.07;;;;;;;;;;5041491;28;20450;-85
2023/08/09 08:30:12;;;;;;;4.72;0.98;;;;;;;;;;5040513;28;20092;-85
2023/08/09 08:32:39;;;;;;;3.80;0.88;;;;;;;;;;5037974;28;20042;-85
2023/08/09 08:35:13;;;;;;;5.20;0.95;;;;;;;;;;5039448;28;20203;-84
2023/08/09 08:37:39;;;;;;;4.47;0.93;;;;;;;;;;5033139;28;20046;-85
2023/08/09 08:40:07;;;;;;;3.83;0.90;;;;;;;;;;5040440;28;20119;-85
2023/08/09 08:42:33;;;;;;;4.82;0.95;;;;;;;;;;5036836;28;20058;-85
2023/08/09 08:45:00;;;;;;;7.18;1.10;;;;;;;;;;5026271;28;20041;-84
2023/08/09 08:47:27;;;;;;;4.88;1.05;;;;;;;;;;5041401;28;20049;-85
2023/08/09 08:49:55;;;;;;;7.10;1.10;;;;;;;;;;5032899;28;20052;-86
2023/08/09 08:52:21;;;;;;;3.72;0.90;;;;;;;;;;5041382;28;20060;-86
2023/08/09 08:54:48;;;;;;;4.30;1.08;;;;;;;;;;5032004;28;20042;-86
2023/08/09 08:57:14;;;;;;;2.97;0.70;;;;;;;;;;5045551;28;20515;-85
2023/08/09 08:59:40;;;;;;;5.22;1.10;;;;;;;;;;5045793;28;20061;-85
2023/08/09 09:02:06;;;;;;;5.72;1.08;;;;;;;;;;5045183;28;20049;-84
2023/08/09 09:04:32;;;;;;;4.32;0.93;;;;;;;;;;5028446;28;20045;-85
2023/08/09 09:06:58;;;;;;;5.03;1.27;;;;;;;;;;5044799;28;20434;-86
2023/08/09 09:09:24;;;;;;;6.50;0.85;;;;;;;;;;5042986;28;20096;-86
2023/08/09 09:11:52;;;;;;;3.83;0.82;;;;;;;;;;5042524;28;20065;-86
2023/08/09 09:14:19;;;;;;;4.28;1.10;;;;;;;;;;5044651;28;20101;-86
2023/08/09 09:16:45;;;;;;;5.45;1.10;;;;;;;;;;5041516;28;20053;-86
2023/08/09 09:19:12;;;;;;;3.90;0.95;;;;;;;;;;5025717;28;20064;-86
2023/08/09 09:21:38;;;;;;;4.18;1.10;;;;;;;;;;5042520;28;20041;-86
2023/08/09 09:24:05;;;;;;;4.18;1.27;;;;;;;;;;5045202;28;20045;-87
2023/08/09 09:26:32;;;;;;;2.78;0.98;;;;;;;;;;5042863;28;20046;-87
2023/08/09 09:29:01;;;;;;;3.85;0.95;;;;;;;;;;5045425;28;20046;-88
2023/08/09 09:31:40;;;;;;;3.90;1.00;;;;;;;;;;5046035;28;20050;-85
2023/08/09 09:34:10;;;;;;;3.45;1.00;;;;;;;;;;5043167;28;20072;-86
2023/08/09 09:36:39;;;;;;;3.50;0.95;;;;;;;;;;5041032;28;20400;-87
2023/08/09 09:39:11;;;;;;;6.57;1.02;;;;;;;;;;5042074;28;20049;-87
2023/08/09 09:41:46;;;;;;;4.22;0.90;;;;;;;;;;5045331;28;20045;-85
2023/08/09 09:44:12;;;;;;;3.88;0.98;;;;;;;;;;5026655;28;20046;-86
2023/08/09 09:46:41;;;;;;;4.18;1.00;;;;;;;;;;5025916;28;20045;-85
2023/08/09 09:49:08;;;;;;;3.47;0.93;;;;;;;;;;5033358;28;20091;-86
2023/08/09 09:51:35;;;;;;;3.67;0.90;;;;;;;;;;5039083;28;20050;-86
2023/08/09 09:54:01;;;;;;;2.53;0.80;;;;;;;;;;5040833;28;20068;-86
2023/08/09 09:56:27;;;;;;;3.30;0.90;;;;;;;;;;5046147;28;20046;-86
2023/08/09 09:58:53;;;;;;;8.38;1.23;;;;;;;;;;5046817;28;20132;-87
2023/08/09 10:01:20;;;;;;;4.75;0.90;;;;;;;;;;5045874;28;20045;-88
2023/08/09 10:03:48;;;;;;;3.72;1.00;;;;;;;;;;5044218;28;20045;-90
2023/08/09 10:06:26;;;;;;;3.92;1.20;;;;;;;;;;5039405;28;20049;-86
2023/08/09 10:08:52;;;;;;;3.47;0.90;;;;;;;;;;5044041;28;20392;-86
2023/08/09 10:11:19;;;;;;;5.25;1.10;;;;;;;;;;5043115;28;20048;-87
2023/08/09 10:13:46;;;;;;;4.22;1.13;;;;;;;;;;5045059;28;20045;-86
2023/08/09 10:16:13;;;;;;;3.97;0.90;;;;;;;;;;5043104;28;20068;-86
2023/08/09 10:18:47;;;;;;;4.20;1.00;;;;;;;;;;5038938;28;20049;-85
2023/08/09 10:21:15;;;;;;;5.15;0.98;;;;;;;;;;5037181;28;20120;-87
2023/08/09 10:23:54;;;;;;;2.67;0.90;;;;;;;;;;5045217;28;20053;-85
2023/08/09 10:26:27;;;;;;;2.47;0.80;;;;;;;;;;5042044;28;20053;-86
2023/08/09 10:29:00;;;;;;;4.05;0.80;;;;;;;;;;5037782;28;20046;-86
2023/08/09 10:31:46;;;;;;;2.60;0.95;;;;;;;;;;5042519;28;20042;-87
2023/08/09 10:34:13;;;;;;;5.60;1.20;;;;;;;;;;5053524;28;20468;-86
2023/08/09 10:36:39;;;;;;;4.13;1.08;;;;;;;;;;5022162;28;20042;-86
2023/08/09 10:39:15;;;;;;;4.85;1.20;;;;;;;;;;5030090;28;20357;-85
2023/08/09 10:42:14;;;;;;;2.22;0.90;;;;;;;;;;5044595;28;20128;-86
2023/08/09 10:44:41;;;;;;;4.72;1.20;;;;;;;;;;4995073;28;20093;-86
2023/08/09 10:47:11;;;;;;;5.43;1.10;;;;;;;;;;5044249;28;20050;-87
2023/08/09 10:49:49;;;;;;;3.55;1.05;;;;;;;;;;5044434;28;20034;-87
2023/08/09 10:52:15;;;;;;;4.20;1.00;;;;;;;;;;5045840;28;20053;-87
2023/08/09 10:54:41;;;;;;;2.95;0.90;;;;;;;;;;5046400;28;20041;-88
2023/08/09 10:57:09;;;;;;;5.55;1.30;;;;;;;;;;5046798;28;20088;-87
2023/08/09 10:59:37;;;;;;;3.00;0.80;;;;;;;;;;5042380;28;20508;-87
2023/08/09 11:02:04;;;;;;;3.88;0.98;;;;;;;;;;5047485;28;20045;-85
2023/08/09 11:04:30;;;;;;;5.40;1.13;;;;;;;;;;5030976;28;20045;-87
2023/08/09 11:06:56;;;;;;;6.13;0.98;;;;;;;;;;5028771;28;20046;-86
2023/08/09 11:09:23;;;;;;;4.18;0.90;;;;;;;;;;5047191;28;20098;-86
2023/08/09 11:11:50;;;;;;;3.72;0.90;;;;;;;;;;5047470;28;20038;-87
2023/08/09 11:14:21;;;;;;;5.30;1.20;;;;;;;;;;5048950;28;20045;-87
2023/08/09 11:16:48;;;;;;;5.28;1.05;;;;;;;;;;5039848;28;20042;-87
2023/08/09 11:19:18;;;;;;;4.95;1.20;;;;;;;;;;5046208;28;20045;-87
2023/08/09 11:21:48;;;;;;;8.43;1.20;;;;;;;;;;5040243;28;20057;-86
2023/08/09 11:24:15;;;;;;;4.40;1.02;;;;;;;;;;5046660;28;20049;-87
2023/08/09 11:26:46;;;;;;;4.97;1.05;;;;;;;;;;5043704;28;20452;-87
2023/08/09 11:29:12;;;;;;;3.97;1.10;;;;;;;;;;5039454;28;20069;-85
2023/08/09 11:31:45;;;;;;;2.97;0.80;;;;;;;;;;5029869;28;20046;-85
2023/08/09 11:34:12;;;;;;;3.70;1.20;;;;;;;;;;5041015;28;20124;-86
2023/08/09 11:36:41;;;;;;;3.55;0.82;;;;;;;;;;5045922;28;20064;-83
2023/08/09 11:39:09;;;;;;;9.13;1.25;;;;;;;;;;5049828;28;20049;-85
2023/08/09 11:41:46;;;;;;;5.63;1.10;;;;;;;;;;5049681;28;20105;-86
2023/08/09 11:44:14;;;;;;;3.78;0.88;;;;;;;;;;5029477;28;20054;-84
2023/08/09 11:46:40;;;;;;;5.50;1.00;;;;;;;;;;5036422;28;20071;-85
2023/08/09 11:49:07;;;;;;;5.43;1.08;;;;;;;;;;5047091;28;20045;-84
2023/08/09 11:51:38;;;;;;;3.38;0.90;;;;;;;;;;5043760;28;20042;-84
2023/08/09 11:54:08;;;;;;;4.50;1.15;;;;;;;;;;5030030;28;20048;-83
2023/08/09 11:56:35;;;;;;;6.15;1.30;;;;;;;;;;5047423;28;20042;-85
2023/08/09 11:59:02;;;;;;;5.95;1.20;;;;;;;;;;5048395;28;20091;-84
2023/08/09 12:01:35;;;;;;;4.35;1.10;;;;;;;;;;5049515;28;20337;-86
2023/08/09 12:04:07;;;;;;;3.60;1.02;;;;;;;;;;5050356;28;20088;-83
2023/08/09 12:06:33;;;;;;;4.93;1.10;;;;;;;;;;5049357;28;20049;-84
2023/08/09 12:08:59;;;;;;;4.60;1.35;;;;;;;;;;5031026;28;20045;-84
2023/08/09 12:11:28;;;;;;;2.95;0.90;;;;;;;;;;5049712;28;20100;-87
2023/08/09 12:13:54;;;;;;;5.35;1.23;;;;;;;;;;5048968;28;20038;-84
2023/08/09 12:16:21;;;;;;;4.32;0.90;;;;;;;;;;5048472;28;20044;-85
2023/08/09 12:18:47;;;;;;;3.53;0.93;;;;;;;;;;5047769;28;20148;-83
2023/08/09 12:21:13;;;;;;;7.28;1.40;;;;;;;;;;5050270;28;20381;-83
2023/08/09 12:23:39;;;;;;;5.22;1.17;;;;;;;;;;5049302;28;20085;-82
2023/08/09 12:26:07;;;;;;;2.80;1.10;;;;;;;;;;5030568;28;20122;-84
2023/08/09 12:28:34;;;;;;;6.43;1.40;;;;;;;;;;5041454;28;20053;-83
2023/08/09 12:31:00;;;;;;;5.30;1.88;;;;;;;;;;5048985;28;20050;-82
2023/08/09 12:33:27;;;;;;;5.32;1.13;;;;;;;;;;5049384;28;20041;-83
2023/08/09 12:35:53;;;;;;;3.92;1.00;;;;;;;;;;5049469;28;20060;-85
2023/08/09 12:38:19;;;;;;;4.43;1.10;;;;;;;;;;5048911;28;20041;-83
2023/08/09 12:40:48;;;;;;;4.63;1.50;;;;;;;;;;5047124;28;20052;-84
2023/08/09 12:43:14;;;;;;;5.57;1.20;;;;;;;;;;5048506;28;20054;-84
2023/08/09 12:45:40;;;;;;;4.25;1.20;;;;;;;;;;5046379;28;20052;-83
2023/08/09 12:48:06;;;;;;;4.72;1.33;;;;;;;;;;5048913;28;20045;-84
2023/08/09 12:50:33;;;;;;;5.57;1.20;;;;;;;;;;5049702;28;20128;-85
2023/08/09 12:53:02;;;;;;;3.97;1.15;;;;;;;;;;5049265;28;20041;-84
2023/08/09 12:55:28;;;;;;;8.60;1.30;;;;;;;;;;5041418;28;20041;-83
2023/08/09 12:57:54;;;;;;;3.28;1.17;;;;;;;;;;5046844;28;20071;-83
2023/08/09 13:00:21;;;;;;;4.88;1.27;;;;;;;;;;5044098;28;20053;-83
2023/08/09 13:02:47;;;;;;;4.60;1.15;;;;;;;;;;5025128;28;20072;-84
2023/08/09 13:05:16;;;;;;;6.70;1.33;;;;;;;;;;5042974;28;20061;-84
2023/08/09 13:07:42;;;;;;;6.03;1.45;;;;;;;;;;5045310;28;20064;-83
2023/08/09 13:10:09;;;;;;;3.65;1.10;;;;;;;;;;5038686;28;20047;-84
2023/08/09 13:12:36;;;;;;;3.33;1.05;;;;;;;;;;5022417;28;20045;-83
2023/08/09 13:15:02;;;;;;;4.80;1.30;;;;;;;;;;5013540;28;20049;-84
2023/08/09 13:17:31;;;;;;;6.93;1.45;;;;;;;;;;5029254;28;20136;-85
2023/08/09 13:19:57;;;;;;;5.60;1.35;;;;;;;;;;5044457;28;20045;-84
2023/08/09 13:22:23;;;;;;;4.45;1.20;;;;;;;;;;5037476;28;20101;-84
2023/08/09 13:24:49;;;;;;;8.70;1.60;;;;;;;;;;5030622;28;20045;-85
2023/08/09 13:27:15;;;;;;;4.05;1.10;;;;;;;;;;5042228;28;20124;-84
2023/08/09 13:29:41;;;;;;;4.82;1.45;;;;;;;;;;5041334;28;20041;-85
2023/08/09 13:32:07;;;;;;;4.35;1.13;;;;;;;;;;5041724;28;20041;-86
2023/08/09 13:34:34;;;;;;;4.63;1.20;;;;;;;;;;5042585;28;20076;-85
2023/08/09 13:37:01;;;;;;;5.53;1.48;;;;;;;;;;5039967;28;20123;-84
2023/08/09 13:39:27;;;;;;;8.88;1.52;;;;;;;;;;5039269;28;20163;-85
2023/08/09 13:41:53;;;;;;;8.20;1.42;;;;;;;;;;5025130;28;20449;-84
2023/08/09 13:44:19;;;;;;;8.75;1.60;;;;;;;;;;5034117;28;20084;-84
2023/08/09 13:46:46;;;;;;;5.75;1.35;;;;;;;;;;5038770;28;20415;-84
2023/08/09 13:49:12;;;;;;;6.55;1.38;;;;;;;;;;5039931;28;20414;-84
2023/08/09 13:51:41;;;;;;;7.38;1.70;;;;;;;;;;5041080;28;20045;-85
2023/08/09 13:54:08;;;;;;;3.90;1.17;;;;;;;;;;5038432;28;20512;-87
2023/08/09 13:56:34;;;;;;;5.57;1.30;;;;;;;;;;5039751;28;20053;-85
2023/08/09 13:59:00;;;;;;;5.47;1.10;;;;;;;;;;5039377;28;20049;-84
2023/08/09 14:01:26;;;;;;;4.97;1.30;;;;;;;;;;5038604;28;20056;-86
2023/08/09 14:03:53;;;;;;;6.03;1.13;;;;;;;;;;5037073;28;20065;-85
2023/08/09 14:06:19;;;;;;;3.65;1.00;;;;;;;;;;5036369;28;20050;-84
2023/08/09 14:08:45;;;;;;;4.72;1.20;;;;;;;;;;5040466;28;20049;-84
2023/08/09 14:11:11;;;;;;;4.93;1.10;;;;;;;;;;5042327;28;20041;-84
2023/08/09 14:13:44;;;;;;;4.32;1.20;;;;;;;;;;5034389;28;20051;-83
2023/08/09 14:16:10;;;;;;;4.28;1.10;;;;;;;;;;5035176;28;20045;-85
2023/08/09 14:18:36;;;;;;;6.80;1.42;;;;;;;;;;5039724;28;20056;-84
2023/08/09 14:21:02;;;;;;;5.95;1.23;;;;;;;;;;5041336;28;20105;-85
2023/08/09 14:23:28;;;;;;;3.67;1.08;;;;;;;;;;5020166;28;20399;-84
2023/08/09 14:25:55;;;;;;;4.95;1.30;;;;;;;;;;5043139;28;20042;-84
2023/08/09 14:28:22;;;;;;;5.85;1.30;;;;;;;;;;5043409;28;20097;-86
2023/08/09 14:30:48;;;;;;;4.93;1.20;;;;;;;;;;5042113;28;20045;-84
2023/08/09 14:33:15;;;;;;;6.55;1.30;;;;;;;;;;5045188;28;20046;-85